Time;durP1;ratioP1;P1;durP2;ratioP2;P2;SDS_P1;SDS_P2;PMS_P1;PMS_P2;Temp;Humidity;BMP_temperature;BMP_pressure;BME280_temperature;BME280_humidity;BME280_pressure;Samples;Min_cycle;Max_cycle;Signal;HPM_P1;HPM_P2
2022/11/20 00:01:42;;;;;;;0.60;0.60;;;;;;;;;;6146439;23;20018;-96
2022/11/20 00:04:14;;;;;;;0.60;0.60;;;;;;;;;;6122597;23;20017;-95
2022/11/20 00:06:40;;;;;;;0.63;0.63;;;;;;;;;;6120417;23;20025;-95
2022/11/20 00:09:10;;;;;;;0.60;0.60;;;;;;;;;;6144044;23;20014;-96
2022/11/20 00:11:42;;;;;;;0.60;0.60;;;;;;;;;;6144027;23;20009;-96
2022/11/20 00:14:13;;;;;;;0.60;0.60;;;;;;;;;;6144835;23;20021;-96
2022/11/20 00:16:39;;;;;;;0.70;0.70;;;;;;;;;;6120707;23;20022;-96
2022/11/20 00:19:10;;;;;;;0.60;0.60;;;;;;;;;;6145230;23;20042;-96
2022/11/20 00:21:47;;;;;;;0.70;0.70;;;;;;;;;;6145588;23;20065;-96
2022/11/20 00:24:18;;;;;;;0.70;0.70;;;;;;;;;;6122853;23;20026;-96
2022/11/20 00:26:47;;;;;;;0.60;0.60;;;;;;;;;;6146861;23;20018;-96
2022/11/20 00:29:13;;;;;;;0.70;0.70;;;;;;;;;;6121557;23;20014;-96
2022/11/20 00:31:43;;;;;;;0.52;0.52;;;;;;;;;;6165292;23;20013;-96
2022/11/20 00:34:10;;;;;;;0.60;0.60;;;;;;;;;;6151027;23;20018;-96
2022/11/20 00:36:51;;;;;;;0.70;0.70;;;;;;;;;;6164628;23;20018;-96
2022/11/20 00:39:18;;;;;;;2.47;2.25;;;;;;;;;;6150094;23;20021;-96
2022/11/20 00:41:53;;;;;;;0.60;0.60;;;;;;;;;;6153545;23;20041;-96
2022/11/20 00:44:24;;;;;;;4.22;2.90;;;;;;;;;;6150586;23;20017;-96
2022/11/20 00:46:50;;;;;;;0.85;0.82;;;;;;;;;;6126680;23;20001;-96
2022/11/20 00:49:20;;;;;;;0.70;0.70;;;;;;;;;;6152594;23;20013;-96
2022/11/20 00:51:50;;;;;;;2.65;2.45;;;;;;;;;;6149988;23;20025;-96
2022/11/20 00:54:19;;;;;;;3.60;2.50;;;;;;;;;;6148883;23;20103;-95
2022/11/20 00:56:45;;;;;;;0.70;0.70;;;;;;;;;;6116328;23;20044;-96
2022/11/20 00:59:11;;;;;;;0.60;0.60;;;;;;;;;;6122016;23;20021;-95
2022/11/20 01:01:38;;;;;;;0.70;0.70;;;;;;;;;;6123013;23;20022;-96
2022/11/20 01:04:04;;;;;;;0.80;0.80;;;;;;;;;;6145981;23;20013;-96
2022/11/20 01:06:35;;;;;;;0.70;0.70;;;;;;;;;;6122459;23;20075;-96
2022/11/20 01:09:03;;;;;;;0.60;0.60;;;;;;;;;;6144781;23;20021;-96
2022/11/20 01:11:30;;;;;;;0.68;0.68;;;;;;;;;;6122685;23;20316;-96
2022/11/20 01:13:58;;;;;;;0.60;0.60;;;;;;;;;;6123459;23;20021;-96
2022/11/20 01:16:27;;;;;;;0.70;0.70;;;;;;;;;;6146664;23;20013;-96
2022/11/20 01:18:55;;;;;;;0.60;0.60;;;;;;;;;;6123213;23;20013;-96
2022/11/20 01:21:25;;;;;;;0.70;0.70;;;;;;;;;;6150370;23;20126;-96
2022/11/20 01:23:55;;;;;;;1.25;1.15;;;;;;;;;;6127759;23;20303;-96
2022/11/20 01:26:27;;;;;;;;;;;;;;;;;;6153735;23;20054;-96
2022/11/20 01:28:55;;;;;;;0.70;0.70;;;;;;;;;;6150972;23;20319;-96
2022/11/20 01:31:26;;;;;;;0.63;0.63;;;;;;;;;;6122752;23;20029;-96
2022/11/20 01:33:57;;;;;;;0.70;0.70;;;;;;;;;;6146830;23;20018;-96
2022/11/20 01:36:25;;;;;;;0.63;0.63;;;;;;;;;;6143693;23;20024;-96
2022/11/20 01:38:52;;;;;;;0.70;0.70;;;;;;;;;;6119633;23;20025;-96
2022/11/20 01:44:04;;;;;;;0.60;0.60;;;;;;;;;;6138172;23;20477;-95
2022/11/20 01:46:31;;;;;;;0.70;0.70;;;;;;;;;;6104084;23;20261;-95
2022/11/20 01:49:01;;;;;;;0.65;0.65;;;;;;;;;;6103813;23;20069;-95
2022/11/20 01:51:33;;;;;;;0.60;0.60;;;;;;;;;;6108065;23;20025;-96
2022/11/20 01:54:01;;;;;;;2.20;2.05;;;;;;;;;;6120330;23;20020;-96
2022/11/20 01:56:28;;;;;;;0.60;0.60;;;;;;;;;;6120885;23;20044;-96
2022/11/20 01:58:57;;;;;;;1.50;1.33;;;;;;;;;;6121280;23;20017;-96
2022/11/20 02:01:23;;;;;;;1.42;1.33;;;;;;;;;;6143897;23;20014;-96
2022/11/20 02:03:50;;;;;;;1.20;1.10;;;;;;;;;;6145845;23;20018;-95
2022/11/20 02:06:23;;;;;;;0.70;0.70;;;;;;;;;;6144000;23;20360;-96
2022/11/20 02:08:50;;;;;;;0.70;0.70;;;;;;;;;;6120863;23;20018;-95
2022/11/20 02:11:16;;;;;;;1.42;1.33;;;;;;;;;;6120502;23;20022;-96
2022/11/20 02:13:46;;;;;;;1.08;1.00;;;;;;;;;;6096974;23;20024;-96
2022/11/20 02:16:17;;;;;;;0.60;0.60;;;;;;;;;;6144328;23;20014;-96
2022/11/20 02:18:44;;;;;;;2.55;2.30;;;;;;;;;;6119267;23;20017;-96
2022/11/20 02:21:19;;;;;;;0.50;0.50;;;;;;;;;;6119683;23;20025;-95
2022/11/20 02:23:55;;;;;;;0.80;0.80;;;;;;;;;;6119571;23;20014;-96
2022/11/20 02:26:25;;;;;;;0.70;0.70;;;;;;;;;;6144591;23;20018;-96
2022/11/20 02:28:51;;;;;;;0.60;0.60;;;;;;;;;;6138360;23;20014;-96
2022/11/20 02:31:18;;;;;;;0.65;0.65;;;;;;;;;;6117002;23;20486;-96
2022/11/20 02:33:44;;;;;;;0.60;0.60;;;;;;;;;;6141539;23;20021;-96
2022/11/20 02:36:13;;;;;;;0.60;0.60;;;;;;;;;;6118635;23;20326;-96
2022/11/20 02:38:39;;;;;;;0.70;0.70;;;;;;;;;;6118548;23;20021;-96
2022/11/20 02:41:08;;;;;;;0.70;0.70;;;;;;;;;;6118246;23;20029;-96
2022/11/20 02:43:35;;;;;;;0.60;0.60;;;;;;;;;;6095045;23;20057;-96
2022/11/20 02:46:02;;;;;;;0.60;0.60;;;;;;;;;;6118303;23;20014;-96
2022/11/20 02:48:28;;;;;;;0.60;0.60;;;;;;;;;;6118383;23;20032;-96
2022/11/20 02:50:54;;;;;;;0.60;0.60;;;;;;;;;;6118527;23;20084;-95
2022/11/20 02:53:21;;;;;;;0.70;0.70;;;;;;;;;;6144326;23;20441;-96
2022/11/20 02:55:47;;;;;;;0.70;0.70;;;;;;;;;;6119290;23;20025;-96
2022/11/20 02:58:13;;;;;;;1.00;0.90;;;;;;;;;;6118887;23;20022;-96
2022/11/20 03:00:41;;;;;;;0.60;0.60;;;;;;;;;;6143306;23;20029;-96
2022/11/20 03:03:10;;;;;;;1.00;1.00;;;;;;;;;;6118025;23;20076;-96
2022/11/20 03:05:36;;;;;;;0.60;0.60;;;;;;;;;;6117716;23;20017;-96
2022/11/20 03:08:02;;;;;;;0.70;0.70;;;;;;;;;;6117076;23;20025;-96
2022/11/20 03:10:28;;;;;;;0.60;0.60;;;;;;;;;;6116930;23;20014;-96
2022/11/20 03:12:55;;;;;;;0.60;0.60;;;;;;;;;;6118359;23;20018;-96
2022/11/20 03:15:22;;;;;;;0.60;0.60;;;;;;;;;;6117964;23;20045;-96
2022/11/20 03:17:48;;;;;;;0.68;0.68;;;;;;;;;;6119084;23;20017;-96
2022/11/20 03:20:14;;;;;;;3.13;2.33;;;;;;;;;;6117631;23;20025;-96
2022/11/20 03:22:44;;;;;;;0.60;0.60;;;;;;;;;;6117878;23;20018;-96
2022/11/20 03:25:10;;;;;;;0.60;0.60;;;;;;;;;;6119070;23;20017;-96
2022/11/20 03:27:36;;;;;;;0.70;0.70;;;;;;;;;;6119454;23;20046;-96
2022/11/20 03:30:03;;;;;;;0.80;0.80;;;;;;;;;;6142601;23;20045;-96
2022/11/20 03:32:36;;;;;;;0.70;0.70;;;;;;;;;;6143486;23;20014;-96
2022/11/20 03:35:03;;;;;;;0.60;0.60;;;;;;;;;;6119132;23;20018;-96
2022/11/20 03:37:29;;;;;;;0.60;0.60;;;;;;;;;;6095278;23;20462;-94
2022/11/20 03:39:55;;;;;;;0.70;0.70;;;;;;;;;;6118901;23;20025;-95
2022/11/20 03:45:07;;;;;;;0.60;0.60;;;;;;;;;;6142048;23;20033;-96
2022/11/20 03:47:33;;;;;;;1.15;1.05;;;;;;;;;;6142093;23;20017;-96
2022/11/20 03:50:00;;;;;;;0.63;0.63;;;;;;;;;;6116747;23;20025;-96
2022/11/20 03:52:26;;;;;;;0.70;0.70;;;;;;;;;;6117222;23;20014;-96
2022/11/20 03:54:52;;;;;;;0.85;0.85;;;;;;;;;;6116792;23;20013;-96
2022/11/20 03:57:18;;;;;;;0.70;0.70;;;;;;;;;;6115172;23;20021;-96
2022/11/20 03:59:44;;;;;;;0.60;0.60;;;;;;;;;;6092067;23;20017;-96
2022/11/20 04:02:10;;;;;;;0.70;0.70;;;;;;;;;;6116261;23;20025;-96
2022/11/20 04:04:37;;;;;;;0.70;0.70;;;;;;;;;;6115122;23;20026;-96
2022/11/20 04:07:03;;;;;;;0.80;0.80;;;;;;;;;;6115496;23;20021;-96
2022/11/20 04:09:32;;;;;;;1.00;1.00;;;;;;;;;;6116986;23;20092;-96
2022/11/20 04:11:58;;;;;;;0.60;0.60;;;;;;;;;;6115857;23;20025;-96
2022/11/20 04:14:25;;;;;;;0.70;0.70;;;;;;;;;;6115823;23;20022;-96
2022/11/20 04:16:51;;;;;;;0.70;0.70;;;;;;;;;;6116016;23;20348;-96
2022/11/20 04:19:20;;;;;;;0.55;0.55;;;;;;;;;;6141422;23;20065;-96
2022/11/20 04:21:46;;;;;;;0.70;0.70;;;;;;;;;;6117433;23;20021;-96
2022/11/20 04:24:13;;;;;;;0.70;0.70;;;;;;;;;;6117188;23;20032;-94
2022/11/20 04:26:40;;;;;;;0.70;0.70;;;;;;;;;;6116463;23;20033;-96
2022/11/20 04:29:06;;;;;;;0.60;0.60;;;;;;;;;;6116784;23;20510;-96
2022/11/20 04:31:34;;;;;;;0.70;0.70;;;;;;;;;;6140817;23;20002;-96
2022/11/20 04:34:03;;;;;;;0.68;0.68;;;;;;;;;;6116713;23;20065;-96
2022/11/20 04:36:30;;;;;;;0.50;0.50;;;;;;;;;;6116588;23;20390;-95
2022/11/20 04:38:57;;;;;;;0.60;0.60;;;;;;;;;;6116468;23;20018;-96
2022/11/20 04:41:28;;;;;;;0.65;0.65;;;;;;;;;;6116740;23;20045;-96
2022/11/20 04:44:04;;;;;;;0.70;0.70;;;;;;;;;;6115868;23;20044;-96
2022/11/20 04:46:47;;;;;;;0.73;0.73;;;;;;;;;;6136874;23;20022;-94
2022/11/20 04:49:14;;;;;;;0.60;0.60;;;;;;;;;;6113969;23;20097;-95
2022/11/20 04:51:40;;;;;;;0.60;0.60;;;;;;;;;;6115135;23;20014;-96
2022/11/20 04:54:06;;;;;;;0.60;0.60;;;;;;;;;;6115967;23;20013;-96
2022/11/20 04:56:32;;;;;;;0.70;0.70;;;;;;;;;;6114542;23;20017;-96
2022/11/20 04:59:02;;;;;;;0.80;0.80;;;;;;;;;;6114392;23;20036;-96
2022/11/20 05:01:28;;;;;;;0.70;0.70;;;;;;;;;;6113961;23;20340;-96
2022/11/20 05:03:54;;;;;;;0.90;0.90;;;;;;;;;;6113641;23;20065;-96
2022/11/20 05:06:21;;;;;;;0.70;0.70;;;;;;;;;;6112055;23;20014;-95
2022/11/20 05:08:47;;;;;;;0.60;0.60;;;;;;;;;;6113408;23;20077;-95
2022/11/20 05:11:15;;;;;;;0.68;0.68;;;;;;;;;;6113015;23;20029;-96
2022/11/20 05:13:42;;;;;;;1.35;1.25;;;;;;;;;;6111300;23;20048;-96
2022/11/20 05:16:12;;;;;;;0.70;0.70;;;;;;;;;;6138351;23;20722;-96
2022/11/20 05:18:39;;;;;;;0.68;0.68;;;;;;;;;;6113735;23;20014;-95
2022/11/20 05:21:05;;;;;;;0.60;0.60;;;;;;;;;;6113906;23;20018;-95
2022/11/20 05:23:32;;;;;;;0.70;0.70;;;;;;;;;;6114509;23;20020;-96
2022/11/20 05:25:58;;;;;;;0.70;0.70;;;;;;;;;;6114645;23;20069;-96
2022/11/20 05:28:25;;;;;;;0.50;0.50;;;;;;;;;;6113475;23;20037;-95
2022/11/20 05:30:51;;;;;;;0.60;0.60;;;;;;;;;;6113164;23;20045;-96
2022/11/20 05:33:17;;;;;;;0.70;0.70;;;;;;;;;;6113248;23;20065;-96
2022/11/20 05:35:47;;;;;;;0.70;0.70;;;;;;;;;;6138698;23;20093;-96
2022/11/20 05:38:14;;;;;;;0.60;0.60;;;;;;;;;;6113915;23;20018;-96
2022/11/20 05:40:40;;;;;;;0.70;0.70;;;;;;;;;;6112861;23;20049;-96
2022/11/20 05:43:06;;;;;;;1.25;1.15;;;;;;;;;;6112456;23;20048;-96
2022/11/20 05:45:32;;;;;;;0.70;0.70;;;;;;;;;;6112658;23;20021;-95
2022/11/20 05:48:00;;;;;;;0.60;0.60;;;;;;;;;;6111672;23;20320;-96
2022/11/20 05:50:26;;;;;;;1.00;0.90;;;;;;;;;;6111312;23;20024;-96
2022/11/20 05:52:52;;;;;;;0.70;0.70;;;;;;;;;;6111543;23;20010;-96
2022/11/20 05:55:18;;;;;;;0.70;0.70;;;;;;;;;;6111820;23;20052;-96
2022/11/20 05:57:44;;;;;;;0.70;0.70;;;;;;;;;;6111364;23;20161;-96
2022/11/20 06:00:11;;;;;;;0.60;0.60;;;;;;;;;;6111744;23;20014;-96
2022/11/20 06:02:37;;;;;;;0.55;0.55;;;;;;;;;;6110400;23;20037;-96
2022/11/20 06:05:03;;;;;;;0.70;0.70;;;;;;;;;;6110679;23;20102;-96
2022/11/20 06:07:29;;;;;;;0.60;0.60;;;;;;;;;;6110369;23;20045;-95
2022/11/20 06:09:55;;;;;;;0.60;0.60;;;;;;;;;;6110438;23;20018;-95
2022/11/20 06:12:21;;;;;;;0.70;0.70;;;;;;;;;;6111258;23;20092;-96
2022/11/20 06:14:47;;;;;;;0.70;0.70;;;;;;;;;;6111168;23;20021;-96
2022/11/20 06:17:14;;;;;;;0.70;0.70;;;;;;;;;;6112573;23;20022;-95
2022/11/20 06:19:40;;;;;;;0.63;0.63;;;;;;;;;;6112090;23;20014;-95
2022/11/20 06:22:06;;;;;;;0.60;0.60;;;;;;;;;;6110718;23;20022;-96
2022/11/20 06:24:32;;;;;;;1.00;0.95;;;;;;;;;;6085301;23;20018;-95
2022/11/20 06:26:58;;;;;;;0.68;0.68;;;;;;;;;;6107026;23;20049;-95
2022/11/20 06:29:25;;;;;;;2.15;1.95;;;;;;;;;;6108016;23;20069;-96
2022/11/20 06:31:51;;;;;;;0.60;0.60;;;;;;;;;;6108790;23;20014;-96
2022/11/20 06:34:17;;;;;;;0.60;0.60;;;;;;;;;;6109174;23;20351;-96
2022/11/20 06:36:43;;;;;;;0.70;0.70;;;;;;;;;;6107458;23;20018;-96
2022/11/20 06:39:09;;;;;;;0.70;0.70;;;;;;;;;;6107733;23;20077;-95
2022/11/20 06:41:35;;;;;;;0.60;0.60;;;;;;;;;;6108911;23;20049;-96
2022/11/20 06:44:02;;;;;;;0.70;0.70;;;;;;;;;;6108076;23;20014;-96
2022/11/20 06:46:28;;;;;;;1.10;1.02;;;;;;;;;;6109158;23;20014;-96
2022/11/20 06:48:54;;;;;;;0.68;0.68;;;;;;;;;;6107904;23;20018;-96
2022/11/20 06:51:21;;;;;;;0.60;0.60;;;;;;;;;;6109449;23;20014;-96
2022/11/20 06:53:47;;;;;;;0.60;0.60;;;;;;;;;;6108299;23;20057;-96
2022/11/20 06:56:13;;;;;;;0.60;0.60;;;;;;;;;;6107703;23;20456;-96
2022/11/20 06:58:39;;;;;;;0.70;0.70;;;;;;;;;;6107583;23;20149;-95
2022/11/20 07:01:07;;;;;;;0.60;0.60;;;;;;;;;;6107558;23;20017;-96
2022/11/20 07:03:33;;;;;;;0.60;0.60;;;;;;;;;;6108283;23;20067;-96
2022/11/20 07:06:00;;;;;;;0.70;0.70;;;;;;;;;;6108033;23;20020;-95
2022/11/20 07:08:26;;;;;;;0.63;0.63;;;;;;;;;;6108322;23;20014;-95
2022/11/20 07:10:53;;;;;;;0.60;0.60;;;;;;;;;;6108866;23;20025;-96
2022/11/20 07:13:19;;;;;;;0.60;0.60;;;;;;;;;;6108565;23;20014;-95
2022/11/20 07:15:45;;;;;;;0.60;0.60;;;;;;;;;;6107861;23;20018;-96
2022/11/20 07:18:11;;;;;;;0.65;0.65;;;;;;;;;;6108897;23;20028;-96
2022/11/20 07:20:37;;;;;;;0.70;0.70;;;;;;;;;;6110022;23;20049;-96
2022/11/20 07:23:03;;;;;;;0.70;0.70;;;;;;;;;;6110674;23;20157;-96
2022/11/20 07:25:30;;;;;;;0.70;0.70;;;;;;;;;;6080484;23;20101;-95
2022/11/20 07:28:00;;;;;;;0.68;0.68;;;;;;;;;;6103436;23;20010;-95
2022/11/20 07:30:26;;;;;;;0.75;0.75;;;;;;;;;;6104624;23;20391;-95
2022/11/20 07:32:53;;;;;;;0.70;0.70;;;;;;;;;;6108516;23;20342;-94
2022/11/20 07:35:19;;;;;;;0.60;0.60;;;;;;;;;;6108246;23;20049;-94
2022/11/20 07:37:45;;;;;;;0.70;0.70;;;;;;;;;;6107891;23;20014;-94
2022/11/20 07:40:12;;;;;;;0.70;0.70;;;;;;;;;;6107694;23;20018;-94
2022/11/20 07:42:38;;;;;;;0.60;0.60;;;;;;;;;;6108062;23;20073;-93
2022/11/20 07:45:04;;;;;;;0.60;0.60;;;;;;;;;;6107688;23;20017;-95
2022/11/20 07:47:35;;;;;;;0.52;0.52;;;;;;;;;;6132805;23;20017;-94
2022/11/20 07:50:01;;;;;;;0.60;0.60;;;;;;;;;;6108192;23;20024;-94
2022/11/20 07:52:27;;;;;;;0.60;0.60;;;;;;;;;;6107959;23;20021;-94
2022/11/20 07:54:53;;;;;;;0.70;0.70;;;;;;;;;;6107851;23;20014;-94
2022/11/20 07:57:19;;;;;;;0.60;0.60;;;;;;;;;;6107554;23;20021;-95
2022/11/20 07:59:45;;;;;;;0.60;0.60;;;;;;;;;;6107706;23;20025;-95
2022/11/20 08:02:12;;;;;;;0.60;0.60;;;;;;;;;;6107314;23;20017;-95
2022/11/20 08:04:37;;;;;;;0.70;0.70;;;;;;;;;;6107397;23;20493;-94
2022/11/20 08:07:03;;;;;;;0.70;0.70;;;;;;;;;;6107028;23;20053;-94
2022/11/20 08:09:29;;;;;;;0.70;0.70;;;;;;;;;;6106687;23;20056;-93
2022/11/20 08:14:40;;;;;;;1.42;1.15;;;;;;;;;;6131644;23;20014;-95
2022/11/20 08:17:06;;;;;;;0.70;0.70;;;;;;;;;;6107017;23;20077;-94
2022/11/20 08:19:32;;;;;;;0.70;0.70;;;;;;;;;;6106973;23;20067;-94
2022/11/20 08:21:58;;;;;;;0.60;0.60;;;;;;;;;;6106778;23;20021;-94
2022/11/20 08:24:26;;;;;;;0.60;0.60;;;;;;;;;;6106334;23;20489;-93
2022/11/20 08:26:52;;;;;;;0.60;0.60;;;;;;;;;;6105901;23;20018;-93
2022/11/20 08:29:18;;;;;;;0.50;0.50;;;;;;;;;;6105538;23;20029;-95
2022/11/20 08:31:44;;;;;;;0.90;0.90;;;;;;;;;;6100960;23;20053;-93
2022/11/20 08:34:10;;;;;;;0.70;0.70;;;;;;;;;;6101171;23;20117;-93
2022/11/20 08:36:36;;;;;;;0.50;0.50;;;;;;;;;;6101273;23;20010;-95
2022/11/20 08:39:03;;;;;;;0.60;0.60;;;;;;;;;;6100879;23;20080;-94
2022/11/20 08:41:32;;;;;;;0.60;0.60;;;;;;;;;;6100979;23;20513;-94
2022/11/20 08:44:03;;;;;;;0.60;0.60;;;;;;;;;;6101129;23;20017;-94
2022/11/20 08:46:36;;;;;;;0.60;0.60;;;;;;;;;;6101139;23;20018;-95
2022/11/20 08:49:03;;;;;;;0.70;0.70;;;;;;;;;;6100795;23;20125;-94
2022/11/20 08:51:29;;;;;;;0.60;0.60;;;;;;;;;;6100946;23;20097;-95
2022/11/20 08:53:55;;;;;;;1.27;1.17;;;;;;;;;;6100831;23;20022;-95
2022/11/20 08:56:21;;;;;;;0.60;0.60;;;;;;;;;;6100923;23;20025;-94
2022/11/20 08:58:47;;;;;;;0.60;0.60;;;;;;;;;;6100735;23;20022;-93
2022/11/20 09:01:14;;;;;;;0.52;0.52;;;;;;;;;;6077048;23;20042;-93
2022/11/20 09:03:40;;;;;;;0.68;0.68;;;;;;;;;;6100687;23;20018;-93
2022/11/20 09:06:07;;;;;;;0.60;0.60;;;;;;;;;;6101008;23;20014;-94
2022/11/20 09:08:33;;;;;;;0.60;0.60;;;;;;;;;;6100847;23;20014;-94
2022/11/20 09:10:59;;;;;;;0.70;0.70;;;;;;;;;;6100622;23;20020;-95
2022/11/20 09:13:27;;;;;;;0.60;0.60;;;;;;;;;;6100686;23;20021;-94
2022/11/20 09:15:57;;;;;;;0.60;0.60;;;;;;;;;;6100762;23;20015;-95
2022/11/20 09:18:24;;;;;;;0.55;0.55;;;;;;;;;;6100902;23;20024;-94
2022/11/20 09:20:50;;;;;;;0.57;0.57;;;;;;;;;;6100688;23;20017;-94
2022/11/20 09:23:16;;;;;;;0.60;0.60;;;;;;;;;;6100802;23;20069;-95
2022/11/20 09:25:43;;;;;;;0.60;0.60;;;;;;;;;;6100829;23;20025;-95
2022/11/20 09:28:09;;;;;;;0.60;0.60;;;;;;;;;;6100767;23;20016;-95
2022/11/20 09:30:35;;;;;;;0.63;0.63;;;;;;;;;;6104414;23;20018;-94
2022/11/20 09:33:01;;;;;;;0.60;0.60;;;;;;;;;;6105497;23;20013;-95
2022/11/20 09:35:27;;;;;;;0.50;0.50;;;;;;;;;;6105498;23;20049;-95
2022/11/20 09:37:53;;;;;;;0.60;0.60;;;;;;;;;;6105799;23;20347;-95
2022/11/20 09:40:24;;;;;;;0.60;0.60;;;;;;;;;;6105809;23;20017;-94
2022/11/20 09:43:06;;;;;;;0.60;0.60;;;;;;;;;;6107671;23;20072;-94
2022/11/20 09:45:38;;;;;;;0.60;0.60;;;;;;;;;;6107475;23;20021;-94
2022/11/20 09:48:18;;;;;;;0.60;0.60;;;;;;;;;;6131839;23;20013;-95
2022/11/20 09:50:54;;;;;;;0.60;0.60;;;;;;;;;;6107511;23;20017;-94
2022/11/20 09:53:35;;;;;;;0.50;0.50;;;;;;;;;;6107441;23;20010;-95
2022/11/20 09:56:02;;;;;;;0.60;0.60;;;;;;;;;;6132110;23;20013;-94
2022/11/20 09:58:37;;;;;;;0.60;0.60;;;;;;;;;;6107201;23;20017;-95
2022/11/20 10:01:12;;;;;;;0.50;0.50;;;;;;;;;;6107199;23;20028;-95
2022/11/20 10:03:41;;;;;;;0.60;0.60;;;;;;;;;;6107309;23;20075;-95
2022/11/20 10:06:11;;;;;;;0.60;0.60;;;;;;;;;;6107232;23;20021;-95
2022/11/20 10:08:43;;;;;;;0.60;0.60;;;;;;;;;;6106973;23;20455;-95
2022/11/20 10:11:09;;;;;;;0.60;0.60;;;;;;;;;;6106986;23;20020;-95
2022/11/20 10:13:44;;;;;;;0.50;0.50;;;;;;;;;;6107197;23;20455;-95
2022/11/20 10:16:29;;;;;;;0.60;0.60;;;;;;;;;;6107290;23;20052;-95
2022/11/20 10:19:13;;;;;;;0.60;0.60;;;;;;;;;;6106954;23;20025;-95
2022/11/20 10:21:57;;;;;;;0.50;0.50;;;;;;;;;;6107102;23;20013;-95
2022/11/20 10:24:37;;;;;;;0.60;0.60;;;;;;;;;;6131482;23;20017;-94
2022/11/20 10:27:25;;;;;;;0.60;0.60;;;;;;;;;;6107252;23;20053;-95
2022/11/20 10:30:02;;;;;;;0.60;0.60;;;;;;;;;;6107044;23;20108;-95
2022/11/20 10:32:31;;;;;;;0.60;0.60;;;;;;;;;;6101869;23;20021;-95
2022/11/20 10:35:00;;;;;;;0.52;0.52;;;;;;;;;;6102397;23;20013;-96
2022/11/20 10:37:27;;;;;;;0.60;0.60;;;;;;;;;;6101826;23;20029;-94
2022/11/20 10:40:02;;;;;;;0.60;0.60;;;;;;;;;;6101824;23;20101;-94
2022/11/20 10:42:31;;;;;;;0.50;0.50;;;;;;;;;;6102084;23;20359;-95
2022/11/20 10:45:17;;;;;;;0.60;0.60;;;;;;;;;;6101789;23;20073;-94
2022/11/20 10:47:43;;;;;;;0.50;0.50;;;;;;;;;;6101968;23;20010;-95
2022/11/20 10:50:11;;;;;;;0.60;0.60;;;;;;;;;;6126139;23;20014;-95
2022/11/20 10:52:37;;;;;;;0.60;0.60;;;;;;;;;;6101911;23;20068;-94
2022/11/20 10:55:15;;;;;;;0.63;0.63;;;;;;;;;;6102057;23;20018;-96
2022/11/20 10:57:54;;;;;;;0.60;0.60;;;;;;;;;;6126331;23;20097;-95
2022/11/20 11:00:21;;;;;;;0.60;0.60;;;;;;;;;;6101770;23;20066;-95
2022/11/20 11:02:48;;;;;;;0.52;0.52;;;;;;;;;;6102032;23;20025;-96
2022/11/20 11:05:20;;;;;;;0.60;0.60;;;;;;;;;;6101626;23;20053;-94
2022/11/20 11:07:49;;;;;;;0.50;0.50;;;;;;;;;;6101994;23;20021;-95
2022/11/20 11:10:19;;;;;;;0.40;0.40;;;;;;;;;;6101808;23;20025;-95
2022/11/20 11:12:48;;;;;;;0.60;0.60;;;;;;;;;;6101710;23;20343;-95
2022/11/20 11:15:26;;;;;;;0.50;0.50;;;;;;;;;;6101766;23;20018;-95
2022/11/20 11:17:52;;;;;;;0.55;0.55;;;;;;;;;;6101744;23;20021;-95
2022/11/20 11:20:23;;;;;;;0.70;0.70;;;;;;;;;;6101830;23;20182;-95
2022/11/20 11:22:54;;;;;;;0.60;0.60;;;;;;;;;;6126242;23;20320;-95
2022/11/20 11:25:33;;;;;;;1.08;1.00;;;;;;;;;;6101636;23;20021;-95
2022/11/20 11:28:01;;;;;;;0.70;0.70;;;;;;;;;;6101661;23;20014;-95
2022/11/20 11:30:30;;;;;;;0.60;0.60;;;;;;;;;;6103311;23;20101;-95
2022/11/20 11:33:14;;;;;;;0.60;0.60;;;;;;;;;;6106817;23;20101;-96
2022/11/20 11:35:45;;;;;;;0.60;0.60;;;;;;;;;;6106398;23;20060;-95
2022/11/20 11:38:14;;;;;;;0.68;0.68;;;;;;;;;;6106686;23;20394;-95
2022/11/20 11:40:41;;;;;;;0.60;0.60;;;;;;;;;;6106283;23;20017;-96
2022/11/20 11:45:04;;;;;;;0.60;0.60;;;;;;;;;;6106719;23;20021;-94
2022/11/20 11:46:06;;;;;;;0.50;0.50;;;;;;;;;;6131373;23;20104;-95
2022/11/20 11:48:32;;;;;;;0.77;0.77;;;;;;;;;;6106882;23;20017;-95
2022/11/20 11:50:58;;;;;;;0.50;0.50;;;;;;;;;;6106544;23;20061;-96
2022/11/20 11:53:26;;;;;;;0.60;0.60;;;;;;;;;;6106961;23;20017;-96
2022/11/20 11:55:56;;;;;;;0.60;0.60;;;;;;;;;;6106775;23;20097;-96
2022/11/20 11:58:42;;;;;;;0.60;0.60;;;;;;;;;;6106460;23;20048;-95
2022/11/20 12:01:26;;;;;;;0.60;0.60;;;;;;;;;;6106270;23;20021;-95
2022/11/20 12:04:04;;;;;;;0.60;0.60;;;;;;;;;;6106341;23;20053;-95
2022/11/20 12:06:31;;;;;;;0.85;0.85;;;;;;;;;;6106369;23;20056;-95
2022/11/20 12:09:03;;;;;;;0.60;0.60;;;;;;;;;;6105967;23;20457;-95
2022/11/20 12:11:38;;;;;;;0.60;0.60;;;;;;;;;;6106257;23;20077;-94
2022/11/20 12:14:30;;;;;;;0.50;0.50;;;;;;;;;;6106162;23;20077;-96
2022/11/20 12:16:57;;;;;;;0.50;0.50;;;;;;;;;;6099628;23;20021;-96
2022/11/20 12:19:33;;;;;;;0.50;0.50;;;;;;;;;;6105893;23;20017;-96
2022/11/20 12:21:58;;;;;;;0.73;0.73;;;;;;;;;;6106291;23;20021;-95
2022/11/20 12:24:45;;;;;;;0.60;0.60;;;;;;;;;;6106133;23;20010;-96
2022/11/20 12:27:11;;;;;;;0.50;0.50;;;;;;;;;;6105800;23;20395;-95
2022/11/20 12:29:54;;;;;;;0.50;0.50;;;;;;;;;;6105964;23;20235;-96
2022/11/20 12:32:30;;;;;;;0.60;0.60;;;;;;;;;;6100873;23;20018;-95
2022/11/20 12:35:09;;;;;;;0.60;0.60;;;;;;;;;;6101238;23;20013;-95
2022/11/20 12:37:46;;;;;;;0.60;0.60;;;;;;;;;;6101152;23;20108;-96
2022/11/20 12:40:28;;;;;;;0.60;0.60;;;;;;;;;;6100890;23;20025;-95
2022/11/20 12:45:54;;;;;;;0.50;0.50;;;;;;;;;;6125363;23;20025;-95
2022/11/20 12:48:24;;;;;;;0.50;0.50;;;;;;;;;;6125055;23;20428;-95
2022/11/20 12:51:05;;;;;;;0.60;0.60;;;;;;;;;;6101227;23;20018;-95
2022/11/20 12:53:35;;;;;;;0.60;0.60;;;;;;;;;;6101215;23;20443;-95
2022/11/20 12:56:07;;;;;;;0.60;0.60;;;;;;;;;;6101035;23;20014;-94
2022/11/20 12:58:36;;;;;;;0.50;0.50;;;;;;;;;;6101367;23;20018;-94
2022/11/20 13:01:40;;;;;;;0.60;0.60;;;;;;;;;;6100620;23;20057;-94
2022/11/20 13:04:22;;;;;;;0.63;0.63;;;;;;;;;;6101197;23;20391;-95
2022/11/20 13:06:48;;;;;;;0.50;0.50;;;;;;;;;;6100966;23;20028;-95
2022/11/20 13:09:16;;;;;;;0.85;0.85;;;;;;;;;;6100870;23;20018;-95
2022/11/20 13:11:49;;;;;;;0.60;0.60;;;;;;;;;;6100922;23;20029;-95
2022/11/20 13:14:34;;;;;;;2.05;1.95;;;;;;;;;;6101034;23;20021;-95
2022/11/20 13:17:19;;;;;;;0.50;0.50;;;;;;;;;;6102350;23;20024;-94
2022/11/20 13:19:52;;;;;;;0.50;0.50;;;;;;;;;;6102781;23;20025;-94
2022/11/20 13:22:37;;;;;;;0.60;0.60;;;;;;;;;;6102866;23;20026;-95
2022/11/20 13:25:03;;;;;;;0.50;0.50;;;;;;;;;;6102822;23;20014;-95
2022/11/20 13:27:30;;;;;;;0.77;0.75;;;;;;;;;;6102801;23;20030;-96
2022/11/20 13:30:01;;;;;;;0.60;0.60;;;;;;;;;;6102933;23;20016;-95
2022/11/20 13:32:31;;;;;;;0.50;0.50;;;;;;;;;;6102422;23;20554;-96
2022/11/20 13:35:00;;;;;;;0.60;0.60;;;;;;;;;;6103090;23;20085;-95
2022/11/20 13:37:31;;;;;;;0.60;0.60;;;;;;;;;;6103123;23;20013;-96
2022/11/20 13:40:10;;;;;;;0.60;0.60;;;;;;;;;;6102642;23;20029;-96
2022/11/20 13:42:38;;;;;;;0.50;0.50;;;;;;;;;;6103038;23;20014;-96
2022/11/20 13:45:10;;;;;;;0.60;0.60;;;;;;;;;;6102764;23;20022;-95
2022/11/20 13:47:47;;;;;;;0.60;0.60;;;;;;;;;;6103296;23;20407;-96
2022/11/20 13:50:14;;;;;;;0.60;0.60;;;;;;;;;;6102946;23;20081;-95
2022/11/20 13:52:56;;;;;;;0.60;0.60;;;;;;;;;;6102833;23;20033;-96
2022/11/20 13:55:40;;;;;;;0.50;0.50;;;;;;;;;;6102828;23;20064;-96
2022/11/20 13:58:31;;;;;;;0.50;0.50;;;;;;;;;;6102474;23;20440;-96
2022/11/20 14:00:58;;;;;;;0.50;0.50;;;;;;;;;;6102551;23;20112;-95
2022/11/20 14:03:25;;;;;;;0.75;0.75;;;;;;;;;;6103020;23;20021;-96
2022/11/20 14:05:51;;;;;;;0.60;0.60;;;;;;;;;;6102775;23;20439;-95
2022/11/20 14:08:26;;;;;;;0.52;0.52;;;;;;;;;;6102459;23;20100;-95
2022/11/20 14:11:02;;;;;;;0.57;0.57;;;;;;;;;;6102459;23;20014;-95
2022/11/20 14:13:28;;;;;;;0.55;0.55;;;;;;;;;;6102711;23;20320;-96
2022/11/20 14:15:57;;;;;;;0.52;0.52;;;;;;;;;;6102385;23;20014;-95
2022/11/20 14:18:26;;;;;;;0.60;0.60;;;;;;;;;;6102779;23;20447;-95
2022/11/20 14:20:52;;;;;;;0.50;0.50;;;;;;;;;;6102539;23;20029;-95
2022/11/20 14:23:25;;;;;;;0.60;0.60;;;;;;;;;;6102692;23;20018;-95
2022/11/20 14:25:51;;;;;;;0.60;0.60;;;;;;;;;;6102740;23;20057;-96
2022/11/20 14:28:24;;;;;;;0.65;0.65;;;;;;;;;;6102176;23;20025;-95
2022/11/20 14:30:50;;;;;;;0.60;0.60;;;;;;;;;;6102938;23;20466;-96
2022/11/20 14:33:17;;;;;;;0.60;0.60;;;;;;;;;;6102690;23;20092;-96
2022/11/20 14:35:47;;;;;;;0.60;0.60;;;;;;;;;;6102668;23;20018;-96
2022/11/20 14:38:15;;;;;;;0.60;0.60;;;;;;;;;;6102412;23;20021;-95
2022/11/20 14:40:42;;;;;;;0.60;0.60;;;;;;;;;;6102625;23;20017;-96
2022/11/20 14:43:19;;;;;;;0.60;0.60;;;;;;;;;;6102454;23;20021;-96
2022/11/20 14:45:52;;;;;;;0.50;0.50;;;;;;;;;;6126923;23;20013;-96
2022/11/20 14:48:18;;;;;;;2.13;1.70;;;;;;;;;;6102436;23;20017;-96
2022/11/20 14:50:44;;;;;;;0.60;0.60;;;;;;;;;;6102564;23;20013;-95
2022/11/20 14:53:10;;;;;;;0.60;0.60;;;;;;;;;;6102521;23;20081;-95
2022/11/20 14:55:39;;;;;;;0.60;0.60;;;;;;;;;;6102714;23;20026;-96
2022/11/20 14:58:06;;;;;;;0.50;0.50;;;;;;;;;;6102416;23;20018;-95
2022/11/20 15:00:33;;;;;;;0.50;0.50;;;;;;;;;;6101940;23;20342;-96
2022/11/20 15:02:59;;;;;;;0.60;0.60;;;;;;;;;;6102003;23;20014;-95
2022/11/20 15:05:27;;;;;;;0.60;0.60;;;;;;;;;;6102326;23;20507;-95
2022/11/20 15:08:05;;;;;;;0.60;0.60;;;;;;;;;;6101989;23;20014;-96